Time;durP1;ratioP1;P1;durP2;ratioP2;P2;SDS_P1;SDS_P2;PMS_P1;PMS_P2;Temp;Humidity;BMP_temperature;BMP_pressure;BME280_temperature;BME280_humidity;BME280_pressure;Samples;Min_cycle;Max_cycle;Signal;HPM_P1;HPM_P2
2021/12/16 00:09:43;;;;;;;59.70;38.90;;;8.80;99.90;;;;;;5072756;28;20436;-63
2021/12/16 00:31:45;;;;;;;61.47;41.07;;;8.70;99.90;;;;;;5073969;28;20440;-63
2021/12/16 00:34:14;;;;;;;59.60;39.80;;;8.70;99.90;;;;;;5073454;28;20963;-63
2021/12/16 00:36:45;;;;;;;64.73;42.80;;;8.80;99.90;;;;;;5074000;28;20851;-63
2021/12/16 00:39:15;;;;;;;64.80;39.33;;;8.80;99.90;;;;;;5073040;28;20508;-63
2021/12/16 00:41:50;;;;;;;64.00;40.70;;;8.80;99.90;;;;;;5074039;28;20458;-63
2021/12/16 00:44:35;;;;;;;64.67;43.23;;;8.80;99.90;;;;;;5073655;28;20733;-63
2021/12/16 00:47:25;;;;;;;64.93;41.43;;;8.70;99.90;;;;;;5074667;28;20467;-63
2021/12/16 00:49:53;;;;;;;64.20;39.90;;;8.80;99.90;;;;;;5076944;28;20455;-63
2021/12/16 00:55:20;;;;;;;65.40;42.03;;;8.70;99.90;;;;;;5074870;28;20772;-63
2021/12/16 00:57:51;;;;;;;66.50;39.83;;;8.70;99.90;;;;;;5075067;28;20901;-63
2021/12/16 01:00:19;;;;;;;66.30;42.13;;;8.80;99.90;;;;;;5072991;28;20890;-63
2021/12/16 01:03:00;;;;;;;64.77;41.80;;;8.70;99.90;;;;;;5078694;28;20439;-63
2021/12/16 01:35:53;;;;;;;66.73;39.90;;;8.80;99.90;;;;;;5079272;28;20520;-63
2021/12/16 01:39:02;;;;;;;65.40;40.07;;;8.70;99.90;;;;;;5080051;28;20472;-63
2021/12/16 01:47:25;;;;;;;72.87;43.50;;;8.70;99.90;;;;;;5078992;28;20441;-63
2021/12/16 01:50:01;;;;;;;67.40;40.83;;;8.70;99.90;;;;;;5086052;28;20743;-63
2021/12/16 01:53:00;;;;;;;72.20;41.63;;;8.70;99.90;;;;;;5079801;28;20526;-63
2021/12/16 01:55:34;;;;;;;71.07;43.73;;;8.70;99.90;;;;;;5079048;28;20929;-63
2021/12/16 01:58:11;;;;;;;73.50;42.37;;;8.70;99.90;;;;;;5078744;28;20460;-63
2021/12/16 02:00:54;;;;;;;68.17;40.93;;;8.70;99.90;;;;;;5079042;28;20526;-63
2021/12/16 02:03:36;;;;;;;85.47;45.60;;;8.70;99.90;;;;;;5078524;28;20496;-63
2021/12/16 02:06:10;;;;;;;75.73;46.43;;;8.70;99.90;;;;;;5078960;28;20820;-63
2021/12/16 02:08:39;;;;;;;74.70;41.60;;;8.70;99.90;;;;;;5078167;28;20790;-63
2021/12/16 02:11:20;;;;;;;74.30;43.30;;;8.70;99.90;;;;;;5078805;28;20465;-63
2021/12/16 02:33:19;;;;;;;83.63;44.80;;;8.70;99.90;;;;;;5036435;28;20433;-63
2021/12/16 02:35:58;;;;;;;84.70;46.27;;;8.70;99.90;;;;;;5076959;28;20485;-64
2021/12/16 02:38:31;;;;;;;82.37;46.10;;;8.80;99.90;;;;;;5077820;28;20461;-63
2021/12/16 02:40:58;;;;;;;82.43;44.87;;;8.80;99.90;;;;;;5078649;28;20465;-63
2021/12/16 02:43:53;;;;;;;89.23;49.40;;;8.80;99.90;;;;;;5077790;28;20457;-63
2021/12/16 02:49:09;;;;;;;91.23;48.97;;;8.70;99.90;;;;;;5055003;28;20888;-63
2021/12/16 02:51:36;;;;;;;78.80;46.60;;;8.70;99.90;;;;;;5098509;28;20530;-63
2021/12/16 02:54:06;;;;;;;87.67;47.30;;;8.70;99.90;;;;;;5077764;28;20475;-63
2021/12/16 02:56:34;;;;;;;83.70;47.20;;;8.70;99.90;;;;;;5075918;28;20501;-63
2021/12/16 02:59:02;;;;;;;110.53;50.93;;;8.70;99.90;;;;;;5072939;28;20904;-63
2021/12/16 03:01:33;;;;;;;92.47;48.37;;;8.70;99.90;;;;;;5077789;28;20544;-63
2021/12/16 03:04:09;;;;;;;91.27;49.37;;;8.70;99.90;;;;;;5077371;28;20457;-63
2021/12/16 03:06:37;;;;;;;95.33;50.67;;;8.70;99.90;;;;;;5077766;28;20781;-63
2021/12/16 03:09:08;;;;;;;93.37;48.60;;;8.70;99.90;;;;;;5077283;28;20473;-63
2021/12/16 03:11:44;;;;;;;97.77;48.90;;;8.70;99.90;;;;;;5077491;28;20552;-61
2021/12/16 03:14:26;;;;;;;103.70;50.80;;;8.80;99.90;;;;;;5077179;28;20853;-63
2021/12/16 03:17:07;;;;;;;106.83;51.67;;;8.70;99.90;;;;;;5068025;28;20467;-63
2021/12/16 03:19:47;;;;;;;99.60;49.97;;;8.80;99.90;;;;;;5077163;28;20916;-63
2021/12/16 03:22:27;;;;;;;92.77;48.53;;;8.70;99.90;;;;;;5077808;28;20519;-63
2021/12/16 03:25:17;;;;;;;90.17;47.10;;;8.80;99.90;;;;;;5074642;28;20901;-63
2021/12/16 03:28:30;;;;;;;95.40;49.40;;;8.70;99.90;;;;;;5077396;28;20465;-63
2021/12/16 03:31:08;;;;;;;86.20;48.67;;;8.70;99.90;;;;;;5077974;28;20472;-63
2021/12/16 03:33:53;;;;;;;90.60;47.20;;;8.60;99.90;;;;;;5076223;28;20882;-63
2021/12/16 03:36:29;;;;;;;85.57;45.77;;;8.60;99.90;;;;;;5076579;28;20485;-63
2021/12/16 03:38:59;;;;;;;92.63;45.00;;;8.60;99.90;;;;;;5076554;28;20473;-63
2021/12/16 03:41:29;;;;;;;87.80;46.67;;;8.60;99.90;;;;;;5077631;28;20457;-63
2021/12/16 03:43:59;;;;;;;92.60;46.60;;;8.60;99.90;;;;;;5076492;28;20484;-63
2021/12/16 03:46:29;;;;;;;93.53;48.63;;;8.60;99.90;;;;;;5076684;28;20912;-63
2021/12/16 03:49:05;;;;;;;91.23;47.30;;;8.60;99.90;;;;;;5077037;28;20811;-63
2021/12/16 03:51:36;;;;;;;85.60;45.60;;;8.70;99.90;;;;;;5076371;28;20913;-63
2021/12/16 03:54:07;;;;;;;87.37;45.33;;;8.70;99.90;;;;;;5077614;28;20461;-63
2021/12/16 03:56:37;;;;;;;89.90;47.40;;;8.70;99.90;;;;;;5072370;28;20562;-63
2021/12/16 03:59:06;;;;;;;89.17;46.13;;;8.70;99.90;;;;;;5071670;28;20457;-63
2021/12/16 04:01:34;;;;;;;78.80;42.50;;;8.60;99.90;;;;;;5065651;28;20539;-63
2021/12/16 04:04:01;;;;;;;84.40;45.03;;;8.60;99.90;;;;;;5067686;28;20860;-63
2021/12/16 04:06:34;;;;;;;77.17;42.57;;;8.60;99.90;;;;;;5069733;28;20450;-63
2021/12/16 04:09:06;;;;;;;85.80;44.50;;;8.60;99.90;;;;;;5072467;28;20880;-63
2021/12/16 04:11:40;;;;;;;82.77;44.23;;;8.60;99.90;;;;;;5070297;28;20518;-63
2021/12/16 04:14:08;;;;;;;78.37;43.10;;;8.60;99.90;;;;;;5070183;28;21040;-63
2021/12/16 04:16:38;;;;;;;87.47;45.30;;;8.50;99.90;;;;;;5062008;28;20501;-63
2021/12/16 04:19:12;;;;;;;74.20;41.10;;;8.60;99.90;;;;;;5070924;28;20523;-63
2021/12/16 04:21:41;;;;;;;73.20;42.00;;;8.50;99.90;;;;;;5076896;28;20440;-63
2021/12/16 04:24:09;;;;;;;77.70;43.93;;;8.50;99.90;;;;;;5069995;28;20511;-63
2021/12/16 04:26:42;;;;;;;77.53;41.80;;;8.50;99.90;;;;;;5075451;28;20432;-62
2021/12/16 04:29:10;;;;;;;75.67;41.70;;;8.40;99.90;;;;;;5075889;28;20818;-63
2021/12/16 04:31:38;;;;;;;76.47;43.87;;;8.40;99.90;;;;;;5073777;28;20457;-63
2021/12/16 04:34:46;;;;;;;80.90;45.30;;;8.40;99.90;;;;;;5075026;28;20463;-63
2021/12/16 04:37:13;;;;;;;80.40;44.77;;;8.30;99.90;;;;;;5079191;28;20496;-63
2021/12/16 04:39:42;;;;;;;76.50;43.17;;;8.20;99.90;;;;;;5076418;28;20485;-63
2021/12/16 04:42:12;;;;;;;77.97;43.37;;;8.20;99.90;;;;;;5077311;28;20432;-62
2021/12/16 04:44:41;;;;;;;84.73;44.67;;;8.10;99.90;;;;;;5079634;28;20907;-63
2021/12/16 04:47:10;;;;;;;77.30;42.40;;;8.00;99.90;;;;;;5079821;28;20754;-63
2021/12/16 04:49:37;;;;;;;77.90;42.77;;;8.10;99.90;;;;;;5085470;28;20461;-63
2021/12/16 04:52:09;;;;;;;85.70;44.97;;;8.10;99.90;;;;;;5079788;28;20503;-63
2021/12/16 04:54:37;;;;;;;80.00;45.80;;;8.10;99.90;;;;;;5077441;28;20447;-63
2021/12/16 04:57:05;;;;;;;72.20;40.90;;;8.10;99.90;;;;;;5069617;28;20498;-63
2021/12/16 04:59:35;;;;;;;75.90;42.87;;;8.10;99.90;;;;;;5070500;28;21108;-63
2021/12/16 05:02:07;;;;;;;75.27;41.40;;;8.10;99.90;;;;;;5068472;28;20760;-63
2021/12/16 05:04:35;;;;;;;74.87;41.80;;;8.10;99.90;;;;;;5071315;28;20877;-63
2021/12/16 05:07:03;;;;;;;77.37;44.17;;;8.00;99.90;;;;;;5072408;28;20462;-63
2021/12/16 05:10:02;;;;;;;79.90;41.83;;;8.10;99.90;;;;;;5070934;28;20574;-63
2021/12/16 05:12:33;;;;;;;74.73;41.53;;;8.10;99.90;;;;;;5070496;28;20464;-63
2021/12/16 05:15:02;;;;;;;86.70;41.40;;;8.10;99.90;;;;;;5068695;28;20496;-63
2021/12/16 05:17:34;;;;;;;72.47;42.60;;;8.00;99.90;;;;;;5079547;28;20485;-63
2021/12/16 05:20:07;;;;;;;78.90;43.80;;;8.00;99.90;;;;;;5079329;28;20564;-63
2021/12/16 05:25:28;;;;;;;85.13;45.47;;;8.00;99.90;;;;;;5079615;28;20506;-63
2021/12/16 05:28:01;;;;;;;79.53;42.30;;;8.00;99.90;;;;;;5078244;28;20461;-63
2021/12/16 05:30:30;;;;;;;79.33;42.70;;;8.10;99.90;;;;;;5079608;28;20457;-63
2021/12/16 05:32:58;;;;;;;77.20;43.70;;;8.10;99.90;;;;;;5079027;28;20564;-63
2021/12/16 05:35:29;;;;;;;76.40;42.67;;;8.00;99.90;;;;;;5079856;28;20436;-63
2021/12/16 05:37:56;;;;;;;87.87;44.90;;;8.00;99.90;;;;;;5079264;28;20546;-63
2021/12/16 05:40:29;;;;;;;75.30;41.43;;;7.90;99.90;;;;;;5079045;28;20552;-63
2021/12/16 05:42:59;;;;;;;78.97;41.97;;;7.90;99.90;;;;;;5078463;28;20457;-63
2021/12/16 05:45:30;;;;;;;84.90;41.80;;;7.90;99.90;;;;;;5079611;28;20489;-63
2021/12/16 05:48:05;;;;;;;79.07;42.53;;;7.80;99.90;;;;;;5083500;28;20449;-63
2021/12/16 05:50:35;;;;;;;80.80;43.80;;;7.70;99.90;;;;;;5089513;28;20456;-63
2021/12/16 05:53:02;;;;;;;73.77;43.10;;;7.60;99.90;;;;;;5079495;28;20555;-63
2021/12/16 05:55:31;;;;;;;80.57;42.60;;;7.50;99.90;;;;;;5078833;28;20472;-63
2021/12/16 05:58:00;;;;;;;75.97;40.30;;;7.50;99.90;;;;;;5079175;28;20499;-63
2021/12/16 06:00:32;;;;;;;72.33;39.57;;;7.40;99.90;;;;;;5078662;28;20480;-63
2021/12/16 06:02:59;;;;;;;79.67;42.00;;;7.20;99.90;;;;;;5078377;28;20542;-63
2021/12/16 06:05:28;;;;;;;72.93;39.13;;;7.20;99.90;;;;;;5076652;28;20458;-63
2021/12/16 06:07:59;;;;;;;77.67;40.17;;;7.20;99.90;;;;;;5079469;28;20461;-63
2021/12/16 06:13:09;;;;;;;69.90;37.37;;;7.20;99.90;;;;;;5074066;28;20440;-63
2021/12/16 06:15:56;;;;;;;75.73;41.17;;;7.10;99.90;;;;;;5078890;28;20465;-63
2021/12/16 06:27:03;;;;;;;85.03;44.80;;;7.00;99.90;;;;;;5053061;28;20467;-63
2021/12/16 06:29:34;;;;;;;77.47;41.00;;;7.10;99.90;;;;;;5077305;28;20769;-63
2021/12/16 06:32:01;;;;;;;71.00;39.23;;;7.20;99.90;;;;;;5078560;28;20462;-63
2021/12/16 06:34:31;;;;;;;75.97;43.17;;;7.20;99.90;;;;;;5076456;28;20431;-63
2021/12/16 06:37:00;;;;;;;81.10;39.93;;;7.20;99.90;;;;;;5076946;28;20497;-63
2021/12/16 06:39:30;;;;;;;79.87;42.10;;;7.30;99.90;;;;;;5078221;28;20462;-63
2021/12/16 06:41:58;;;;;;;72.10;40.77;;;7.20;99.90;;;;;;5077761;28;20458;-63
2021/12/16 06:44:30;;;;;;;77.83;45.43;;;7.20;99.90;;;;;;5076530;28;20469;-63
2021/12/16 06:47:06;;;;;;;81.37;50.87;;;7.20;99.90;;;;;;5076216;28;20894;-63
2021/12/16 06:49:44;;;;;;;95.77;54.20;;;7.30;99.90;;;;;;5077213;28;20438;-63
2021/12/16 06:52:18;;;;;;;81.70;47.90;;;7.20;99.90;;;;;;5077763;28;20496;-63
2021/12/16 06:55:03;;;;;;;82.83;46.77;;;7.30;99.90;;;;;;5059514;28;20504;-62
2021/12/16 06:57:40;;;;;;;81.47;44.70;;;7.30;99.90;;;;;;5068081;28;20491;-63
2021/12/16 07:00:14;;;;;;;82.37;43.57;;;7.30;99.90;;;;;;5075588;28;20552;-63
2021/12/16 07:02:56;;;;;;;89.93;43.60;;;7.20;99.90;;;;;;5076511;28;20866;-63
2021/12/16 07:05:29;;;;;;;76.20;41.93;;;7.20;99.90;;;;;;5076162;28;20491;-63
2021/12/16 07:08:08;;;;;;;75.40;41.53;;;7.20;99.90;;;;;;5078197;28;20464;-63
2021/12/16 07:10:37;;;;;;;75.20;41.57;;;7.20;99.90;;;;;;5075749;28;20511;-63
2021/12/16 07:13:17;;;;;;;82.50;44.20;;;7.10;99.90;;;;;;5077072;28;20472;-62
2021/12/16 07:15:45;;;;;;;84.47;42.90;;;7.10;99.90;;;;;;5068237;28;20559;-63
2021/12/16 07:18:15;;;;;;;84.60;45.63;;;7.10;99.90;;;;;;5076971;28;21003;-63
2021/12/16 07:20:43;;;;;;;79.20;41.90;;;7.00;99.90;;;;;;5076855;28;20959;-63
2021/12/16 07:23:14;;;;;;;79.83;43.23;;;6.90;99.90;;;;;;5075828;28;20962;-63
2021/12/16 07:25:46;;;;;;;75.60;40.37;;;6.90;99.90;;;;;;5076961;28;20787;-63
2021/12/16 07:28:13;;;;;;;74.97;40.97;;;6.90;99.90;;;;;;5076404;28;20795;-63
2021/12/16 07:30:46;;;;;;;76.40;39.97;;;6.70;99.90;;;;;;5076592;28;20515;-63
2021/12/16 07:33:13;;;;;;;80.30;43.83;;;6.70;99.90;;;;;;5076775;28;20551;-63
2021/12/16 07:35:49;;;;;;;99.60;47.40;;;6.70;99.90;;;;;;5076494;28;20465;-65
2021/12/16 07:38:18;;;;;;;114.00;51.30;;;6.80;99.90;;;;;;5077156;28;20492;-64
2021/12/16 07:40:47;;;;;;;127.83;55.07;;;6.90;99.90;;;;;;5076573;28;20799;-64
2021/12/16 07:46:01;;;;;;;113.67;53.43;;;7.10;99.90;;;;;;5076167;28;20444;-62
2021/12/16 07:48:29;;;;;;;104.87;48.20;;;7.20;99.90;;;;;;5084239;28;20478;-63
2021/12/16 07:51:02;;;;;;;105.30;51.27;;;7.30;99.90;;;;;;5078374;28;20742;-64
2021/12/16 07:53:31;;;;;;;118.80;49.40;;;7.40;99.90;;;;;;5075874;28;20461;-64
2021/12/16 07:55:59;;;;;;;108.33;47.50;;;7.40;99.90;;;;;;5076018;28;20457;-64
2021/12/16 07:58:31;;;;;;;111.80;49.20;;;7.50;99.90;;;;;;5075052;28;20485;-63
2021/12/16 08:00:58;;;;;;;109.83;46.50;;;7.50;99.90;;;;;;5077274;28;20488;-64
2021/12/16 08:03:34;;;;;;;96.90;46.17;;;7.50;99.90;;;;;;5075800;28;20952;-62
2021/12/16 08:06:02;;;;;;;108.93;50.23;;;7.50;99.90;;;;;;5077432;28;20465;-64
2021/12/16 08:08:33;;;;;;;103.80;45.63;;;7.50;99.90;;;;;;5074866;28;20453;-64
2021/12/16 08:11:00;;;;;;;97.83;44.53;;;7.50;99.90;;;;;;5075643;28;20534;-62
2021/12/16 08:13:27;;;;;;;98.40;47.13;;;7.60;99.90;;;;;;5074561;28;20493;-60
2021/12/16 08:15:54;;;;;;;101.80;45.00;;;7.60;99.90;;;;;;5075656;28;20471;-62
2021/12/16 08:18:22;;;;;;;105.50;47.37;;;7.60;99.90;;;;;;5075931;28;20768;-63
2021/12/16 08:20:52;;;;;;;103.47;46.13;;;7.70;99.90;;;;;;5075114;28;20461;-63
2021/12/16 08:23:23;;;;;;;104.63;44.17;;;7.60;99.90;;;;;;5076610;28;20472;-63
2021/12/16 08:25:52;;;;;;;102.53;46.60;;;7.70;99.90;;;;;;5076977;28;20443;-63
2021/12/16 08:28:19;;;;;;;99.90;46.53;;;7.80;99.90;;;;;;5075651;28;20432;-63
2021/12/16 08:30:50;;;;;;;103.27;45.00;;;7.80;99.90;;;;;;5076480;28;20461;-63
2021/12/16 08:33:18;;;;;;;102.47;44.97;;;7.70;99.90;;;;;;5075752;28;20530;-63
2021/12/16 08:35:50;;;;;;;108.13;45.30;;;7.80;99.90;;;;;;5076354;28;20465;-63
2021/12/16 08:38:22;;;;;;;103.77;47.30;;;7.80;99.90;;;;;;5065376;28;20543;-63
2021/12/16 08:40:52;;;;;;;89.10;46.87;;;7.80;99.90;;;;;;5061056;28;20512;-63
2021/12/16 08:43:20;;;;;;;104.27;46.53;;;7.90;99.90;;;;;;5076710;28;20457;-63
2021/12/16 08:45:47;;;;;;;105.37;46.03;;;7.90;99.90;;;;;;5076375;28;20534;-63
2021/12/16 08:48:16;;;;;;;86.60;42.80;;;8.00;99.90;;;;;;5076191;28;20503;-61
2021/12/16 08:50:48;;;;;;;96.83;44.60;;;8.00;99.90;;;;;;5076159;28;20465;-63
2021/12/16 08:53:18;;;;;;;83.70;42.53;;;8.00;99.90;;;;;;5076288;28;20468;-63
2021/12/16 08:55:47;;;;;;;90.50;44.33;;;8.00;99.90;;;;;;5076476;28;20461;-63
2021/12/16 08:58:16;;;;;;;90.37;44.23;;;8.10;99.90;;;;;;5074915;28;20485;-63
2021/12/16 09:00:50;;;;;;;80.53;41.93;;;8.10;99.90;;;;;;5075407;28;20511;-63
2021/12/16 09:03:17;;;;;;;86.23;42.83;;;8.10;99.90;;;;;;5076321;28;20461;-63
2021/12/16 09:05:44;;;;;;;86.27;43.07;;;8.10;99.90;;;;;;5076700;28;20518;-63
2021/12/16 09:08:11;;;;;;;89.23;44.10;;;8.20;99.90;;;;;;5076631;28;20522;-63
2021/12/16 09:10:38;;;;;;;83.00;40.83;;;8.20;99.90;;;;;;5076482;28;20522;-63
2021/12/16 09:13:09;;;;;;;87.40;42.90;;;8.20;99.90;;;;;;5076272;28;20534;-63
2021/12/16 09:15:40;;;;;;;80.90;39.90;;;8.30;99.90;;;;;;5076469;28;20547;-63
2021/12/16 09:18:10;;;;;;;82.40;41.27;;;8.40;99.90;;;;;;5076824;28;20493;-63
2021/12/16 09:20:40;;;;;;;75.10;39.07;;;8.50;99.90;;;;;;5076588;28;20527;-63
2021/12/16 09:23:08;;;;;;;81.67;41.13;;;8.60;99.90;;;;;;5079283;28;20496;-64
2021/12/16 09:25:35;;;;;;;80.97;39.23;;;8.70;99.90;;;;;;5080062;28;20518;-63
2021/12/16 09:28:03;;;;;;;74.30;38.60;;;8.80;99.90;;;;;;5080192;28;20457;-63
2021/12/16 09:30:31;;;;;;;80.53;40.70;;;8.80;99.90;;;;;;5079988;28;20461;-63
2021/12/16 09:33:01;;;;;;;74.07;39.20;;;8.90;99.90;;;;;;5079927;28;20461;-63
2021/12/16 09:35:34;;;;;;;64.50;37.50;;;9.00;99.90;;;;;;5079795;28;20465;-64
2021/12/16 09:38:01;;;;;;;69.70;39.57;;;9.10;99.90;;;;;;5080126;28;20489;-63
2021/12/16 09:40:30;;;;;;;68.17;38.00;;;9.00;99.90;;;;;;5079540;28;20465;-63
2021/12/16 09:42:58;;;;;;;67.23;37.30;;;8.90;99.90;;;;;;5079108;28;20461;-63
2021/12/16 09:45:28;;;;;;;69.00;37.20;;;8.90;99.90;;;;;;5079657;28;20526;-63
2021/12/16 09:47:56;;;;;;;63.40;37.83;;;8.80;99.90;;;;;;5079766;28;20457;-63
2021/12/16 09:50:29;;;;;;;65.27;36.87;;;8.80;99.90;;;;;;5079744;28;20815;-63
2021/12/16 09:52:57;;;;;;;67.03;38.40;;;8.80;99.90;;;;;;5079220;28;20471;-63
2021/12/16 09:55:24;;;;;;;67.90;37.93;;;8.80;99.90;;;;;;5079375;28;20890;-63
2021/12/16 09:57:51;;;;;;;66.83;38.47;;;8.90;99.90;;;;;;5079414;28;20460;-63
2021/12/16 10:00:24;;;;;;;66.67;37.03;;;8.90;99.90;;;;;;5079597;28;20466;-63
2021/12/16 10:02:55;;;;;;;65.10;35.10;;;8.80;99.90;;;;;;5077290;28;20461;-63
2021/12/16 10:05:25;;;;;;;72.13;36.53;;;8.70;99.90;;;;;;5077221;28;20449;-63
2021/12/16 10:07:52;;;;;;;73.70;38.03;;;8.70;99.90;;;;;;5078540;28;20522;-63
2021/12/16 10:10:27;;;;;;;79.00;39.03;;;8.80;99.90;;;;;;5077113;28;20462;-63
2021/12/16 10:12:57;;;;;;;75.20;40.10;;;8.80;99.90;;;;;;5078194;28;20831;-63
2021/12/16 10:18:23;;;;;;;82.00;39.50;;;9.00;99.90;;;;;;4996626;28;20461;-63
2021/12/16 10:20:58;;;;;;;72.73;38.47;;;9.00;99.90;;;;;;5059182;28;20952;-63
2021/12/16 10:23:33;;;;;;;84.27;38.90;;;8.90;99.90;;;;;;5078142;28;20465;-63
2021/12/16 10:26:03;;;;;;;69.00;36.80;;;9.00;99.90;;;;;;5079387;28;20464;-63
2021/12/16 10:28:34;;;;;;;71.57;35.30;;;9.00;99.90;;;;;;5077838;28;20511;-63
2021/12/16 10:31:04;;;;;;;59.73;32.20;;;8.90;99.90;;;;;;5075844;28;20535;-63
2021/12/16 10:33:38;;;;;;;72.80;36.63;;;8.90;99.90;;;;;;5076716;28;20469;-63
2021/12/16 10:36:16;;;;;;;67.87;35.00;;;8.90;99.90;;;;;;5077513;28;20485;-63
2021/12/16 10:38:49;;;;;;;70.50;34.60;;;8.90;99.90;;;;;;5077573;28;20584;-63
2021/12/16 10:41:23;;;;;;;75.70;37.77;;;9.00;99.90;;;;;;5077561;28;20457;-63
2021/12/16 10:43:54;;;;;;;85.30;41.83;;;8.90;99.90;;;;;;5077588;28;20504;-63
2021/12/16 10:46:27;;;;;;;89.13;41.57;;;9.00;99.90;;;;;;5076272;28;20490;-63
2021/12/16 10:48:55;;;;;;;84.93;41.27;;;9.00;99.90;;;;;;5088857;28;20487;-62
2021/12/16 10:51:30;;;;;;;83.00;40.33;;;9.00;99.90;;;;;;5088154;28;20450;-63
2021/12/16 10:54:08;;;;;;;76.27;38.20;;;9.00;99.90;;;;;;5075737;28;20532;-63
2021/12/16 10:56:41;;;;;;;84.87;42.23;;;9.00;99.90;;;;;;5076678;28;20457;-63
2021/12/16 10:59:15;;;;;;;69.70;37.00;;;9.10;99.90;;;;;;5075991;28;20481;-63
2021/12/16 11:01:55;;;;;;;78.77;38.40;;;9.00;99.90;;;;;;5077443;28;20457;-63
2021/12/16 11:04:41;;;;;;;81.27;41.43;;;9.10;99.90;;;;;;5074803;28;20882;-63
2021/12/16 11:07:15;;;;;;;91.37;40.77;;;9.20;99.90;;;;;;5075264;28;20449;-63
2021/12/16 11:09:49;;;;;;;91.27;43.60;;;9.10;99.90;;;;;;5076309;28;20464;-63
2021/12/16 11:12:25;;;;;;;80.70;40.63;;;9.20;99.90;;;;;;5076259;28;20461;-63
2021/12/16 11:14:55;;;;;;;82.63;40.03;;;9.20;99.90;;;;;;5074175;28;20537;-63
2021/12/16 11:17:34;;;;;;;75.33;39.30;;;9.20;99.90;;;;;;5076647;28;20870;-62
2021/12/16 11:20:11;;;;;;;80.47;38.07;;;9.30;99.90;;;;;;5076551;28;20488;-63
2021/12/16 11:22:40;;;;;;;86.63;42.53;;;9.30;99.90;;;;;;5076764;28;20962;-63
2021/12/16 11:25:18;;;;;;;87.73;43.70;;;9.40;99.90;;;;;;5074306;28;20511;-63
2021/12/16 11:27:49;;;;;;;86.27;42.57;;;9.40;99.90;;;;;;5077349;28;20943;-62
2021/12/16 11:30:44;;;;;;;97.97;46.67;;;9.40;99.90;;;;;;5076971;28;20751;-63
2021/12/16 11:33:27;;;;;;;78.70;39.20;;;9.40;99.90;;;;;;5053814;28;20458;-63
2021/12/16 11:35:59;;;;;;;101.13;46.10;;;9.40;99.90;;;;;;5076375;28;20453;-63
2021/12/16 11:38:39;;;;;;;92.57;43.03;;;9.50;99.90;;;;;;5076948;28;20485;-64
2021/12/16 11:41:14;;;;;;;83.40;42.63;;;9.50;99.90;;;;;;5074536;28;20454;-64
2021/12/16 11:43:50;;;;;;;86.37;45.33;;;9.50;99.90;;;;;;5074933;28;20558;-64
2021/12/16 11:46:21;;;;;;;93.60;45.70;;;9.50;99.90;;;;;;5074396;28;20469;-64
2021/12/16 11:48:49;;;;;;;95.23;43.60;;;9.50;99.90;;;;;;5076354;28;20449;-64
2021/12/16 11:51:22;;;;;;;88.93;42.73;;;9.40;99.90;;;;;;5073556;28;20458;-64
2021/12/16 11:53:54;;;;;;;90.10;43.87;;;9.50;99.90;;;;;;5076755;28;20499;-64
2021/12/16 11:56:33;;;;;;;87.23;45.63;;;9.60;99.90;;;;;;5069582;28;20522;-64
2021/12/16 11:59:01;;;;;;;93.50;44.80;;;9.70;99.90;;;;;;5072570;28;20489;-65
2021/12/16 12:01:28;;;;;;;84.77;40.73;;;9.60;99.90;;;;;;5075852;28;20526;-64
2021/12/16 12:04:02;;;;;;;86.00;41.77;;;9.70;99.90;;;;;;5072082;28;20897;-64
2021/12/16 12:06:34;;;;;;;95.13;43.30;;;9.60;99.90;;;;;;5074769;28;20528;-64
2021/12/16 12:09:04;;;;;;;100.63;41.80;;;9.70;99.90;;;;;;5075247;28;20454;-64
2021/12/16 12:11:35;;;;;;;77.57;39.50;;;9.70;99.90;;;;;;5075643;28;21047;-64
2021/12/16 12:14:08;;;;;;;89.50;41.87;;;9.70;99.90;;;;;;5076460;28;20578;-64
2021/12/16 12:16:39;;;;;;;86.63;41.80;;;9.70;99.90;;;;;;5075945;28;20523;-64
2021/12/16 12:19:14;;;;;;;92.37;41.60;;;9.70;99.90;;;;;;5076354;28;20489;-64
2021/12/16 12:21:44;;;;;;;79.40;39.77;;;9.70;99.90;;;;;;5076197;28;20489;-64
2021/12/16 12:24:17;;;;;;;77.83;38.57;;;9.70;99.90;;;;;;5076528;28;20808;-64
2021/12/16 12:26:52;;;;;;;73.03;36.70;;;9.70;99.90;;;;;;5075650;28;20505;-64
2021/12/16 12:29:25;;;;;;;76.87;39.53;;;9.70;99.90;;;;;;5076170;28;20486;-62
2021/12/16 12:31:55;;;;;;;78.63;41.03;;;9.60;99.90;;;;;;5075378;28;20465;-62
2021/12/16 12:34:23;;;;;;;85.50;40.60;;;9.50;99.90;;;;;;5074200;28;20510;-63
2021/12/16 12:36:56;;;;;;;91.60;41.10;;;9.50;99.90;;;;;;5073337;28;20461;-63
2021/12/16 12:39:36;;;;;;;71.47;38.70;;;9.50;99.90;;;;;;5073149;28;20497;-63
2021/12/16 12:42:07;;;;;;;78.47;38.60;;;9.50;99.90;;;;;;5072617;28;20457;-63
2021/12/16 12:44:42;;;;;;;77.47;37.57;;;9.60;99.90;;;;;;5075143;28;20461;-63
2021/12/16 12:47:13;;;;;;;77.93;40.70;;;9.50;99.90;;;;;;5073149;28;20457;-62
2021/12/16 12:49:41;;;;;;;81.17;41.20;;;9.40;99.90;;;;;;5074354;28;20510;-62
2021/12/16 12:52:13;;;;;;;76.00;38.17;;;9.50;99.90;;;;;;5075332;28;20465;-63
2021/12/16 12:54:57;;;;;;;80.80;40.53;;;9.40;99.90;;;;;;5071964;28;20787;-63
2021/12/16 12:57:31;;;;;;;70.20;38.23;;;9.40;99.90;;;;;;5076398;28;20469;-61
2021/12/16 13:00:01;;;;;;;74.50;39.37;;;9.30;99.90;;;;;;5076435;28;20524;-63
2021/12/16 13:02:32;;;;;;;73.93;36.90;;;9.50;99.90;;;;;;5077848;28;20456;-63
2021/12/16 13:05:05;;;;;;;65.27;35.03;;;9.40;99.90;;;;;;5076083;28;20463;-63
2021/12/16 13:07:35;;;;;;;74.70;36.90;;;9.30;99.90;;;;;;5077849;28;20560;-63
2021/12/16 13:10:10;;;;;;;74.03;37.60;;;9.40;99.90;;;;;;5077110;28;20476;-63
2021/12/16 13:12:46;;;;;;;72.57;38.10;;;9.50;99.90;;;;;;5075333;28;20833;-62
2021/12/16 13:15:38;;;;;;;76.80;38.37;;;9.40;99.90;;;;;;5075408;28;20462;-63
2021/12/16 13:23:59;;;;;;;83.77;40.20;;;9.30;99.90;;;;;;5075375;28;20433;-61
2021/12/16 13:26:38;;;;;;;70.90;38.80;;;9.30;99.90;;;;;;5076791;28;20457;-62
2021/12/16 13:29:14;;;;;;;79.73;37.50;;;9.30;99.90;;;;;;5076029;28;20461;-61
2021/12/16 13:32:04;;;;;;;71.43;36.40;;;9.30;99.90;;;;;;5078128;28;20461;-62
2021/12/16 13:34:53;;;;;;;77.30;35.80;;;9.30;99.90;;;;;;5076569;28;20910;-61
2021/12/16 13:37:24;;;;;;;67.10;35.30;;;9.30;99.90;;;;;;5076226;28;20464;-62
2021/12/16 13:39:58;;;;;;;69.10;36.47;;;9.30;99.90;;;;;;5077908;28;20538;-61
2021/12/16 13:42:39;;;;;;;74.77;37.20;;;9.20;99.90;;;;;;5078455;28;20472;-62
2021/12/16 13:45:13;;;;;;;60.87;35.20;;;9.20;99.90;;;;;;5076427;28;20464;-62
2021/12/16 14:05:44;;;;;;;72.33;38.60;;;9.30;99.90;;;;;;5078812;28;20532;-62
2021/12/16 14:08:31;;;;;;;63.30;34.93;;;9.30;99.90;;;;;;5077339;28;20457;-62
2021/12/16 14:11:16;;;;;;;78.30;37.70;;;9.30;99.90;;;;;;5077090;28;20472;-62
2021/12/16 14:17:07;;;;;;;71.53;36.13;;;9.30;99.90;;;;;;5075239;28;20445;-61
2021/12/16 14:25:18;;;;;;;66.43;32.80;;;9.30;99.90;;;;;;5075130;28;20902;-63
2021/12/16 14:39:46;;;;;;;58.63;31.13;;;9.20;99.90;;;;;;5077120;28;20514;-62
2021/12/16 14:42:28;;;;;;;62.63;32.37;;;9.20;99.90;;;;;;5078779;28;20485;-62
2021/12/16 14:45:23;;;;;;;59.13;34.33;;;9.20;99.90;;;;;;5078946;28;20469;-62
2021/12/16 14:50:47;;;;;;;64.73;35.80;;;9.20;99.90;;;;;;5091077;28;20711;-62
2021/12/16 14:53:26;;;;;;;79.13;37.67;;;9.20;99.90;;;;;;5077839;28;20465;-62
2021/12/16 14:55:58;;;;;;;72.43;37.03;;;9.30;99.90;;;;;;5077463;28;20452;-62
2021/12/16 14:58:28;;;;;;;70.53;36.73;;;9.20;99.90;;;;;;5075919;28;20520;-61
2021/12/16 15:00:58;;;;;;;58.43;33.40;;;9.10;99.90;;;;;;5073995;28;20484;-62
2021/12/16 15:03:29;;;;;;;77.20;39.43;;;9.20;99.90;;;;;;5075668;28;20461;-62
2021/12/16 15:06:02;;;;;;;75.83;40.63;;;9.40;99.90;;;;;;5077859;28;20784;-62
2021/12/16 15:08:38;;;;;;;73.07;41.00;;;9.30;99.90;;;;;;5076151;28;20465;-62
2021/12/16 15:11:12;;;;;;;76.47;40.00;;;9.30;99.90;;;;;;5077597;28;20559;-63
2021/12/16 15:13:48;;;;;;;79.77;40.50;;;9.20;99.90;;;;;;5078048;28;20878;-62
2021/12/16 15:16:44;;;;;;;78.27;41.10;;;9.20;99.90;;;;;;5077880;28;20465;-62
2021/12/16 15:39:20;;;;;;;71.10;35.30;;;9.10;99.90;;;;;;5062789;28;20569;-62
2021/12/16 15:44:32;;;;;;;70.40;35.83;;;9.00;99.90;;;;;;5076856;28;20448;-62
2021/12/16 15:47:02;;;;;;;63.50;35.53;;;9.00;99.90;;;;;;5077378;28;20461;-62
2021/12/16 15:49:29;;;;;;;71.87;36.90;;;9.00;99.90;;;;;;5089721;28;21012;-59
2021/12/16 15:52:00;;;;;;;75.03;38.50;;;9.00;99.90;;;;;;5077125;28;20583;-60
2021/12/16 15:54:34;;;;;;;72.80;40.97;;;9.00;99.90;;;;;;5076193;28;21365;-62
2021/12/16 15:57:02;;;;;;;76.23;40.60;;;9.00;99.90;;;;;;5077009;28;20461;-62
2021/12/16 15:59:29;;;;;;;76.23;38.20;;;9.00;99.90;;;;;;5076027;28;20489;-62
2021/12/16 16:01:58;;;;;;;72.23;40.53;;;9.10;99.90;;;;;;5077047;28;20451;-61
2021/12/16 16:04:37;;;;;;;79.37;41.17;;;9.10;99.90;;;;;;5076644;28;20582;-60